Time;durP1;ratioP1;P1;durP2;ratioP2;P2;SDS_P1;SDS_P2;PMS_P1;PMS_P2;Temp;Humidity;BMP_temperature;BMP_pressure;BME280_temperature;BME280_humidity;BME280_pressure;Samples;Min_cycle;Max_cycle;Signal;HPM_P1;HPM_P2
2021/06/22 00:00:03;;;;;;;2.87;1.67;;;;;;;23.72;49.56;101251.19;4990180;28;20764;-71
2021/06/22 00:02:28;;;;;;;2.57;1.53;;;;;;;23.71;49.44;101262.56;4990311;28;20234;-72
2021/06/22 00:04:54;;;;;;;2.90;1.40;;;;;;;23.71;49.30;101270.41;5005487;28;20231;-69
2021/06/22 00:07:19;;;;;;;4.07;1.57;;;;;;;23.69;49.49;101294.00;4990408;28;20645;-71
2021/06/22 00:09:45;;;;;;;2.70;1.60;;;;;;;23.69;49.59;101317.53;5005039;28;20203;-70
2021/06/22 00:12:10;;;;;;;3.10;1.93;;;;;;;23.68;49.51;101328.91;4991425;28;20668;-71
2021/06/22 00:14:35;;;;;;;3.77;1.90;;;;;;;23.67;49.48;101327.16;4992923;28;20183;-71
2021/06/22 00:17:01;;;;;;;2.73;1.90;;;;;;;23.68;49.47;101312.34;5009065;28;20188;-71
2021/06/22 00:19:26;;;;;;;2.83;1.40;;;;;;;23.66;49.43;101312.38;4993773;28;20294;-71
2021/06/22 00:21:51;;;;;;;2.80;1.60;;;;;;;23.66;49.31;101315.00;5009171;28;20625;-69
2021/06/22 00:24:17;;;;;;;2.23;1.53;;;;;;;23.66;49.47;101312.38;4994074;28;20180;-72
2021/06/22 00:26:42;;;;;;;5.00;1.80;;;;;;;23.66;49.52;101307.16;4994194;28;20191;-70
2021/06/22 00:29:07;;;;;;;3.70;1.70;;;;;;;23.67;49.14;101306.25;4993794;28;20195;-71
2021/06/22 00:31:32;;;;;;;2.90;1.60;;;;;;;23.69;49.40;101306.19;4991860;28;20179;-69
2021/06/22 00:33:58;;;;;;;2.57;1.70;;;;;;;23.67;49.47;101302.78;4990942;28;20274;-68
2021/06/22 00:36:23;;;;;;;3.00;1.60;;;;;;;23.67;49.33;101315.88;4993517;28;20184;-70
2021/06/22 00:38:48;;;;;;;4.30;1.80;;;;;;;23.64;49.14;101316.81;4993842;28;20655;-68
2021/06/22 00:41:13;;;;;;;5.60;1.67;;;;;;;23.64;49.45;101318.56;4993753;28;20712;-69
2021/06/22 00:43:39;;;;;;;6.83;2.13;;;;;;;23.64;48.66;101326.41;4993867;28;20191;-67
2021/06/22 00:46:05;;;;;;;3.33;1.57;;;;;;;23.62;49.39;101329.03;4994199;28;20207;-68
2021/06/22 00:48:31;;;;;;;3.67;2.10;;;;;;;23.62;49.24;101336.06;4993470;28;20187;-67
2021/06/22 00:50:56;;;;;;;3.33;1.80;;;;;;;23.61;49.29;101326.50;4996102;28;20587;-70
2021/06/22 00:53:22;;;;;;;4.20;2.10;;;;;;;23.61;49.22;101332.56;5010286;28;20164;-68
2021/06/22 00:55:47;;;;;;;3.57;2.10;;;;;;;23.60;49.17;101320.41;4999062;28;20168;-70
2021/06/22 00:58:12;;;;;;;4.60;2.00;;;;;;;23.60;49.34;101327.38;4993600;28;20202;-69
2021/06/22 01:00:38;;;;;;;4.03;2.03;;;;;;;23.60;49.37;101332.59;4993239;28;20242;-69
2021/06/22 01:03:04;;;;;;;4.70;2.40;;;;;;;23.58;49.49;101329.19;4993217;28;20566;-68
2021/06/22 01:05:32;;;;;;;7.47;2.13;;;;;;;23.58;49.71;101330.03;4993407;28;20597;-69
2021/06/22 01:07:58;;;;;;;4.67;2.20;;;;;;;23.57;49.41;101328.31;4993455;28;20211;-68
2021/06/22 01:10:24;;;;;;;3.17;1.93;;;;;;;23.57;49.23;101328.31;4992875;28;20207;-69
2021/06/22 01:12:51;;;;;;;6.47;2.23;;;;;;;23.56;49.19;101324.00;4993576;28;20246;-69
2021/06/22 01:15:19;;;;;;;5.10;2.10;;;;;;;23.56;49.14;101324.00;4993514;28;20183;-68
2021/06/22 01:17:45;;;;;;;4.67;1.83;;;;;;;23.54;49.13;101324.94;4992641;28;20684;-68
2021/06/22 01:20:11;;;;;;;4.30;2.37;;;;;;;23.55;49.32;101324.03;5039912;22;20283;-73
2021/06/22 01:22:41;;;;;;;4.50;1.90;;;;;;;23.54;49.12;101327.53;5051844;28;20186;-72
2021/06/22 01:25:07;;;;;;;4.70;2.10;;;;;;;23.53;49.24;101331.91;5052562;28;20381;-72
2021/06/22 01:27:32;;;;;;;7.93;2.43;;;;;;;23.52;49.16;101326.72;5052622;28;20186;-72
2021/06/22 01:30:00;;;;;;;3.50;2.20;;;;;;;23.53;49.14;101328.44;5052268;28;20204;-72
2021/06/22 01:32:25;;;;;;;4.67;2.10;;;;;;;23.52;48.80;101327.56;5036712;28;20194;-72
2021/06/22 01:34:50;;;;;;;6.17;2.70;;;;;;;23.52;49.31;101326.72;5047774;28;20170;-71
2021/06/22 01:37:16;;;;;;;4.83;2.40;;;;;;;23.51;49.06;101335.44;5032699;28;20835;-72
2021/06/22 01:39:41;;;;;;;5.73;2.57;;;;;;;23.50;49.07;101331.13;5031088;28;20210;-72
2021/06/22 01:42:06;;;;;;;4.83;2.00;;;;;;;23.50;48.89;101333.75;5047382;28;20192;-71
2021/06/22 01:44:34;;;;;;;5.80;2.43;;;;;;;23.50;48.97;101339.84;5030126;28;20206;-72
2021/06/22 01:46:59;;;;;;;4.37;1.90;;;;;;;23.50;49.29;101344.19;5012540;28;20228;-72
2021/06/22 01:49:25;;;;;;;3.90;2.10;;;;;;;23.49;49.24;101345.97;5021273;28;20210;-72
2021/06/22 01:51:50;;;;;;;5.33;2.20;;;;;;;23.49;49.47;101343.38;5031875;28;20174;-72
2021/06/22 01:54:16;;;;;;;3.53;2.03;;;;;;;23.49;49.13;101352.94;5029203;28;20213;-72
2021/06/22 01:56:46;;;;;;;4.13;2.10;;;;;;;23.47;49.16;101352.13;5032077;28;20182;-72
2021/06/22 01:59:11;;;;;;;4.97;2.60;;;;;;;23.48;48.85;101364.31;5047060;28;20198;-73
2021/06/22 02:01:37;;;;;;;4.57;1.97;;;;;;;23.46;49.36;101369.59;5031538;28;20189;-73
2021/06/22 02:04:02;;;;;;;5.63;2.30;;;;;;;23.47;48.70;101373.03;5030424;28;20221;-72
2021/06/22 02:06:27;;;;;;;5.60;2.30;;;;;;;23.46;48.98;101380.03;5031727;28;20210;-72
2021/06/22 02:08:52;;;;;;;4.20;2.70;;;;;;;23.45;48.94;101382.69;5031636;28;20178;-72
2021/06/22 02:11:18;;;;;;;4.77;2.40;;;;;;;23.46;48.82;101385.28;5031813;28;20189;-73
2021/06/22 02:13:43;;;;;;;4.10;2.00;;;;;;;23.45;49.01;101385.31;5031875;28;20179;-72
2021/06/22 02:16:09;;;;;;;6.10;2.67;;;;;;;23.44;48.97;101392.28;5031819;28;20627;-72
2021/06/22 02:18:34;;;;;;;5.20;2.33;;;;;;;23.43;49.07;101398.41;5031207;28;20194;-72
2021/06/22 02:21:00;;;;;;;3.60;2.10;;;;;;;23.44;48.72;101405.34;5031256;28;20225;-72
2021/06/22 02:23:25;;;;;;;5.53;2.23;;;;;;;23.44;48.85;101407.97;5031847;28;20597;-72
2021/06/22 02:25:50;;;;;;;5.07;2.23;;;;;;;23.43;48.88;101401.03;5031846;28;20251;-72
2021/06/22 02:28:19;;;;;;;5.80;2.30;;;;;;;23.42;49.02;101399.31;5031753;28;20190;-72
2021/06/22 02:30:46;;;;;;;5.27;2.40;;;;;;;23.42;48.76;101396.69;5029602;28;20728;-73
2021/06/22 02:33:12;;;;;;;5.27;2.60;;;;;;;23.42;48.74;101401.94;5030171;28;20174;-72
2021/06/22 02:35:38;;;;;;;4.03;2.40;;;;;;;23.42;48.75;101395.81;5011965;28;20552;-72
2021/06/22 02:38:04;;;;;;;4.43;2.27;;;;;;;23.41;48.95;101386.28;5011625;28;20310;-72
2021/06/22 02:40:29;;;;;;;5.30;2.20;;;;;;;23.41;48.70;101378.44;5026512;28;20731;-72
2021/06/22 02:42:55;;;;;;;5.43;2.50;;;;;;;23.40;48.87;101374.97;5011397;28;20680;-72
2021/06/22 02:45:20;;;;;;;4.07;2.40;;;;;;;23.39;48.94;101375.00;5017285;28;20256;-72
2021/06/22 02:47:47;;;;;;;4.53;2.50;;;;;;;23.40;48.91;101374.97;5029899;28;20216;-72
2021/06/22 02:50:13;;;;;;;3.60;2.30;;;;;;;23.39;48.67;101370.63;5030852;28;20722;-71
2021/06/22 02:52:39;;;;;;;5.33;2.43;;;;;;;23.39;48.98;101372.38;5029759;28;20189;-71
2021/06/22 02:55:05;;;;;;;6.53;2.20;;;;;;;23.39;48.80;101370.63;5030963;28;20178;-70
2021/06/22 02:57:31;;;;;;;7.13;2.50;;;;;;;23.40;48.70;101376.72;5030785;28;20186;-71
2021/06/22 02:59:56;;;;;;;4.63;2.40;;;;;;;23.40;49.13;101379.34;5027551;28;20259;-72
2021/06/22 03:02:21;;;;;;;5.47;2.80;;;;;;;23.39;48.75;101375.00;5030908;28;20186;-71
2021/06/22 03:04:47;;;;;;;3.63;2.47;;;;;;;23.39;49.00;101367.16;5030616;28;20210;-72
2021/06/22 03:07:12;;;;;;;4.50;2.43;;;;;;;23.37;48.72;101372.41;5031249;28;20261;-71
2021/06/22 03:09:37;;;;;;;5.77;2.37;;;;;;;23.38;48.60;101381.97;5029322;28;20221;-71
2021/06/22 03:12:03;;;;;;;5.27;2.83;;;;;;;23.38;48.63;101381.13;5035089;28;20667;-72
2021/06/22 03:14:29;;;;;;;4.37;2.20;;;;;;;23.37;48.72;101387.25;5017626;28;20215;-73
2021/06/22 03:16:54;;;;;;;6.40;2.63;;;;;;;23.37;48.80;101400.31;5010984;28;20198;-73
2021/06/22 03:19:20;;;;;;;4.60;2.43;;;;;;;23.37;48.92;101392.47;5010363;28;20405;-72
2021/06/22 03:21:47;;;;;;;4.70;2.20;;;;;;;23.36;48.86;101401.22;5010919;28;20636;-70
2021/06/22 03:24:20;;;;;;;3.70;2.43;;;;;;;23.37;48.84;101405.53;5010719;28;20568;-74
2021/06/22 03:26:46;;;;;;;5.17;2.20;;;;;;;23.36;48.61;101422.13;5010685;28;20183;-73
2021/06/22 03:29:12;;;;;;;5.17;2.50;;;;;;;23.36;48.61;101432.59;5009221;28;20584;-72
2021/06/22 03:31:38;;;;;;;4.57;2.40;;;;;;;23.36;48.82;101443.91;5010925;28;20183;-73
2021/06/22 03:34:04;;;;;;;7.03;2.53;;;;;;;23.36;48.85;101451.75;5010574;28;20667;-73
2021/06/22 03:36:30;;;;;;;5.00;1.87;;;;;;;23.36;48.64;101470.06;5010823;28;20225;-73
2021/06/22 03:38:55;;;;;;;7.00;2.50;;;;;;;23.35;48.87;101472.72;5010764;28;20688;-73
2021/06/22 03:41:21;;;;;;;3.73;2.27;;;;;;;23.36;49.04;101477.03;5012902;28;20226;-73
2021/06/22 03:43:46;;;;;;;3.77;2.30;;;;;;;23.36;48.28;101464.84;5030269;28;20182;-73
2021/06/22 03:46:16;;;;;;;4.73;2.40;;;;;;;23.35;48.73;101446.56;5030190;28;20256;-74
2021/06/22 03:48:41;;;;;;;5.37;2.23;;;;;;;23.35;48.67;101462.25;5030159;28;20248;-74
2021/06/22 03:51:07;;;;;;;6.53;2.37;;;;;;;23.35;48.72;101464.88;5021396;28;20603;-73
2021/06/22 03:53:32;;;;;;;4.40;2.40;;;;;;;23.34;48.89;101450.09;5010347;28;20198;-72
2021/06/22 03:55:57;;;;;;;6.37;2.40;;;;;;;23.36;48.46;101445.66;5011441;28;20186;-72
2021/06/22 03:58:24;;;;;;;5.00;2.47;;;;;;;23.34;48.58;101434.41;5010408;28;20179;-71
2021/06/22 04:00:49;;;;;;;4.10;2.23;;;;;;;23.32;48.61;101426.59;5010087;28;20203;-71
2021/06/22 04:03:15;;;;;;;4.20;2.37;;;;;;;23.33;48.67;101430.03;5025405;28;20183;-73
2021/06/22 04:05:41;;;;;;;6.30;3.03;;;;;;;23.33;48.52;101427.41;5011371;28;20555;-73
2021/06/22 04:08:06;;;;;;;4.53;2.33;;;;;;;23.32;48.61;101429.19;5009099;28;20186;-72
2021/06/22 04:10:32;;;;;;;6.10;2.37;;;;;;;23.33;48.49;101435.25;5009945;28;20207;-72
2021/06/22 04:12:58;;;;;;;4.00;2.00;;;;;;;23.32;48.38;101442.25;5010631;28;20179;-73
2021/06/22 04:15:24;;;;;;;4.83;2.60;;;;;;;23.33;48.46;101437.88;5008910;28;20254;-72
2021/06/22 04:17:49;;;;;;;4.73;2.50;;;;;;;23.33;48.41;101436.13;5010137;28;20195;-72
2021/06/22 04:20:15;;;;;;;5.17;2.40;;;;;;;23.33;48.35;101428.28;5010750;28;20464;-73
2021/06/22 04:22:40;;;;;;;3.17;2.60;;;;;;;23.33;48.47;101428.28;5008802;28;20270;-73
2021/06/22 04:25:06;;;;;;;5.20;2.37;;;;;;;23.33;48.55;101425.69;5026955;28;20202;-73
2021/06/22 04:27:31;;;;;;;7.30;2.80;;;;;;;23.33;48.77;101415.22;5048286;28;20174;-73
2021/06/22 04:29:56;;;;;;;5.20;2.23;;;;;;;23.33;48.71;101420.44;5040348;28;20210;-73
2021/06/22 04:32:22;;;;;;;3.97;2.30;;;;;;;23.35;48.54;101420.41;5029623;28;20699;-73
2021/06/22 04:34:47;;;;;;;6.30;2.60;;;;;;;23.36;48.50;101417.78;5029482;28;20179;-74
2021/06/22 04:37:13;;;;;;;4.87;2.50;;;;;;;23.40;48.38;101418.56;5028622;28;20527;-73
2021/06/22 04:39:38;;;;;;;5.87;2.43;;;;;;;23.40;48.40;101422.03;5029420;28;20248;-73
2021/06/22 04:42:04;;;;;;;5.80;2.30;;;;;;;23.41;48.40;101423.75;5037826;28;20227;-74
2021/06/22 04:44:29;;;;;;;5.00;2.17;;;;;;;23.38;48.71;101413.34;5049557;28;20209;-75
2021/06/22 04:46:54;;;;;;;4.53;2.30;;;;;;;23.39;48.98;101419.47;5049610;28;20683;-73
2021/06/22 04:49:20;;;;;;;4.97;2.10;;;;;;;23.38;48.50;101415.97;5049392;28;20217;-74
2021/06/22 04:51:45;;;;;;;3.50;2.67;;;;;;;23.39;48.32;101420.28;5049693;28;20269;-73
2021/06/22 04:54:10;;;;;;;4.97;2.30;;;;;;;23.38;48.72;101420.34;5048304;28;20186;-74
2021/06/22 04:56:37;;;;;;;4.73;2.47;;;;;;;23.37;48.71;101422.09;5048242;28;20720;-74
2021/06/22 04:59:02;;;;;;;4.53;2.40;;;;;;;23.38;48.61;101438.66;5051749;28;20182;-73
2021/06/22 05:01:28;;;;;;;5.07;2.20;;;;;;;23.38;48.57;101438.66;5053155;28;20231;-75
2021/06/22 05:03:53;;;;;;;4.67;2.57;;;;;;;23.38;48.52;101443.88;5051689;28;20654;-73
2021/06/22 05:06:19;;;;;;;5.70;2.30;;;;;;;23.39;48.76;101451.66;5051673;28;20209;-73
2021/06/22 05:08:44;;;;;;;6.43;2.47;;;;;;;23.39;48.50;101451.66;5038279;28;20192;-73
2021/06/22 05:11:09;;;;;;;4.50;2.30;;;;;;;23.40;48.47;101447.31;5033955;28;20736;-74
2021/06/22 05:13:35;;;;;;;6.07;2.47;;;;;;;23.39;48.59;101446.44;5037738;28;20184;-75
2021/06/22 05:16:00;;;;;;;4.97;2.70;;;;;;;23.38;48.65;101444.72;5032505;28;20178;-74
2021/06/22 05:18:26;;;;;;;4.37;2.43;;;;;;;23.40;48.60;101455.16;5032705;28;20174;-73
2021/06/22 05:20:52;;;;;;;5.30;2.57;;;;;;;23.40;48.44;101460.38;5032214;28;20324;-73
2021/06/22 05:23:17;;;;;;;3.90;2.30;;;;;;;23.39;48.48;101464.75;5032355;28;20612;-73
2021/06/22 05:25:43;;;;;;;5.40;2.43;;;;;;;23.40;48.53;101466.50;5032529;28;20206;-73
2021/06/22 05:28:09;;;;;;;6.90;2.53;;;;;;;23.40;48.42;101476.06;5030662;28;20224;-75
2021/06/22 05:30:34;;;;;;;3.63;2.23;;;;;;;23.41;48.54;101473.44;5032237;28;20614;-74
2021/06/22 05:33:00;;;;;;;5.07;2.37;;;;;;;23.42;48.31;101472.53;5032642;28;20261;-73
2021/06/22 05:35:25;;;;;;;4.33;2.30;;;;;;;23.44;48.22;101473.34;5030742;28;20574;-73
2021/06/22 05:37:50;;;;;;;4.83;2.33;;;;;;;23.44;48.49;101470.72;5032592;28;20181;-74
2021/06/22 05:40:16;;;;;;;4.63;2.60;;;;;;;23.45;48.04;101472.47;5032168;28;20675;-73
2021/06/22 05:42:41;;;;;;;4.33;2.33;;;;;;;23.45;47.98;101472.47;5032535;28;20175;-74
2021/06/22 05:45:07;;;;;;;3.77;2.40;;;;;;;23.46;48.28;101481.16;5032524;28;20206;-74
2021/06/22 05:47:32;;;;;;;5.50;2.30;;;;;;;23.47;48.01;101477.63;5032471;28;20174;-74
2021/06/22 05:49:58;;;;;;;3.40;2.10;;;;;;;23.47;48.36;101481.13;5032102;28;20226;-74
2021/06/22 05:52:24;;;;;;;4.57;2.20;;;;;;;23.48;48.13;101489.84;5032384;28;20175;-74
2021/06/22 05:54:49;;;;;;;4.83;2.50;;;;;;;23.50;48.11;101490.66;5032514;28;20184;-73
2021/06/22 05:57:14;;;;;;;4.83;2.50;;;;;;;23.54;47.71;101495.78;5047591;28;20726;-72
2021/06/22 05:59:39;;;;;;;4.27;1.97;;;;;;;23.57;47.88;101497.47;5032098;28;20562;-74
2021/06/22 06:02:05;;;;;;;6.03;2.30;;;;;;;23.60;47.84;101503.50;5032379;28;20243;-73
2021/06/22 06:04:30;;;;;;;5.27;2.03;;;;;;;23.57;48.32;101500.94;5032284;28;20171;-73
2021/06/22 06:06:56;;;;;;;4.47;2.10;;;;;;;23.59;48.05;101517.47;5032134;28;20681;-73
2021/06/22 06:09:23;;;;;;;4.60;2.40;;;;;;;23.65;48.01;101514.72;5031741;28;20671;-72
2021/06/22 06:11:48;;;;;;;5.87;2.20;;;;;;;23.63;48.52;101520.88;5030840;28;20182;-71
2021/06/22 06:14:13;;;;;;;6.03;2.30;;;;;;;23.63;48.41;101508.66;5031764;28;20182;-72
2021/06/22 06:16:39;;;;;;;9.57;2.83;;;;;;;23.62;48.58;101509.53;5031764;28;20189;-74
2021/06/22 06:19:04;;;;;;;8.67;2.60;;;;;;;23.67;48.62;101504.22;5042670;28;20178;-72
2021/06/22 06:21:29;;;;;;;8.97;2.73;;;;;;;23.69;48.45;101502.41;5052712;28;20197;-73
2021/06/22 06:23:57;;;;;;;5.03;2.67;;;;;;;23.69;48.10;101503.28;5051855;28;20174;-73
2021/06/22 06:26:23;;;;;;;5.67;2.67;;;;;;;23.68;48.50;101503.31;5051542;28;20205;-73
2021/06/22 06:28:54;;;;;;;5.80;2.50;;;;;;;23.74;48.26;101517.09;5051063;28;20196;-72
2021/06/22 06:31:21;;;;;;;5.40;2.47;;;;;;;23.73;48.22;101518.00;5051339;28;20154;-72
2021/06/22 06:33:48;;;;;;;5.27;2.80;;;;;;;23.75;48.25;101531.91;5031387;28;20174;-72
2021/06/22 06:36:13;;;;;;;5.60;2.90;;;;;;;23.77;48.15;101530.13;5045150;28;20178;-70
2021/06/22 06:38:38;;;;;;;7.10;2.67;;;;;;;23.79;48.26;101523.09;5051112;28;20185;-74
2021/06/22 06:41:03;;;;;;;9.27;3.10;;;;;;;23.75;47.60;101531.91;5030196;28;20740;-73
2021/06/22 06:43:29;;;;;;;8.53;3.07;;;;;;;23.90;46.29;101534.19;5021950;28;20233;-71
2021/06/22 06:45:54;;;;;;;5.67;2.53;;;;;;;23.95;45.18;101542.81;5042901;28;20194;-70
2021/06/22 06:48:20;;;;;;;6.50;2.60;;;;;;;23.84;44.88;101539.53;5034522;28;20661;-71
2021/06/22 06:50:45;;;;;;;5.67;2.47;;;;;;;23.78;44.96;101537.06;5030292;28;20683;-71
2021/06/22 06:53:11;;;;;;;8.53;3.07;;;;;;;23.73;44.51;101544.19;5033210;28;20231;-70
2021/06/22 06:55:41;;;;;;;7.63;2.63;;;;;;;23.71;44.81;101543.34;5040098;28;20169;-72
2021/06/22 06:58:06;;;;;;;9.30;3.17;;;;;;;23.75;44.51;101547.59;5030320;28;20200;-71
2021/06/22 07:00:34;;;;;;;7.47;3.00;;;;;;;23.75;45.03;101552.00;5039111;28;20840;-71
2021/06/22 07:03:00;;;;;;;10.20;2.77;;;;;;;23.74;43.70;101553.75;5051240;28;20208;-70
2021/06/22 07:05:27;;;;;;;6.53;3.10;;;;;;;23.77;44.01;101552.81;5032303;28;20244;-70
2021/06/22 07:07:52;;;;;;;6.83;2.63;;;;;;;23.73;43.83;101554.63;5030862;28;20206;-71
2021/06/22 07:10:17;;;;;;;7.83;2.70;;;;;;;23.71;43.48;101545.94;5031360;28;20226;-70
2021/06/22 07:12:44;;;;;;;4.93;2.50;;;;;;;23.72;43.28;101538.97;5036448;28;20228;-69
2021/06/22 07:15:10;;;;;;;8.67;3.10;;;;;;;23.71;43.15;101537.25;5032644;28;20171;-70
2021/06/22 07:17:35;;;;;;;5.37;2.83;;;;;;;23.67;43.03;101538.22;5031088;28;20244;-70
2021/06/22 07:20:05;;;;;;;6.80;2.70;;;;;;;23.69;43.17;101539.91;5030561;28;20293;-70
2021/06/22 07:22:30;;;;;;;6.03;2.70;;;;;;;23.77;43.37;101550.19;5029384;28;20193;-70
2021/06/22 07:24:55;;;;;;;6.30;2.70;;;;;;;23.73;43.01;101557.25;5030832;28;20202;-71
2021/06/22 07:27:21;;;;;;;6.67;2.90;;;;;;;23.72;42.85;101570.38;5038859;28;20190;-70
2021/06/22 07:29:46;;;;;;;8.67;2.47;;;;;;;23.69;42.77;101552.97;5050257;28;20210;-71
2021/06/22 07:32:11;;;;;;;7.40;2.53;;;;;;;23.70;42.99;101561.69;5048970;28;20193;-71
2021/06/22 07:34:37;;;;;;;6.80;3.00;;;;;;;23.65;42.22;101571.38;5039966;28;20285;-70
2021/06/22 07:37:02;;;;;;;7.37;2.70;;;;;;;23.63;42.69;101566.22;5030671;28;20189;-70
2021/06/22 07:39:29;;;;;;;6.33;2.57;;;;;;;23.64;43.09;101553.97;5029749;28;20209;-70
2021/06/22 07:41:54;;;;;;;4.90;2.73;;;;;;;23.62;42.68;101559.25;5018062;28;20233;-70
2021/06/22 07:44:19;;;;;;;6.67;2.60;;;;;;;23.50;41.96;101559.53;5030395;28;20186;-70
2021/06/22 07:46:44;;;;;;;6.67;2.87;;;;;;;23.46;41.98;101562.22;5030773;28;20189;-71
2021/06/22 07:49:10;;;;;;;4.87;2.63;;;;;;;23.50;41.76;101567.38;5030396;28;20225;-70
2021/06/22 07:51:35;;;;;;;4.60;2.53;;;;;;;23.48;41.70;101576.16;5030351;28;20214;-70
2021/06/22 07:54:01;;;;;;;9.13;2.70;;;;;;;23.53;42.37;101582.97;5030476;28;20182;-71
2021/06/22 07:56:26;;;;;;;6.20;2.73;;;;;;;23.60;41.82;101581.97;5029630;28;20193;-71
2021/06/22 07:58:51;;;;;;;5.67;2.73;;;;;;;23.59;42.06;101574.16;5031190;28;20936;-70
2021/06/22 08:01:18;;;;;;;5.97;2.47;;;;;;;23.62;41.84;101574.94;5040983;28;20190;-71
2021/06/22 08:03:43;;;;;;;6.17;2.43;;;;;;;23.59;42.07;101577.63;5030326;28;20170;-70
2021/06/22 08:06:10;;;;;;;5.37;2.70;;;;;;;23.61;42.41;101583.69;5030379;28;20198;-71
2021/06/22 08:08:35;;;;;;;8.50;2.90;;;;;;;23.64;42.72;101585.38;5030058;28;20243;-71
2021/06/22 08:11:00;;;;;;;5.17;2.37;;;;;;;23.62;42.53;101585.41;5030286;28;20194;-71
2021/06/22 08:13:26;;;;;;;4.40;2.37;;;;;;;23.63;42.71;101591.50;5030369;28;20178;-69
2021/06/22 08:15:52;;;;;;;10.33;3.03;;;;;;;23.54;42.28;101581.25;5034031;28;20278;-70
2021/06/22 08:18:18;;;;;;;5.13;2.40;;;;;;;23.49;42.05;101588.31;5028406;28;20266;-70
2021/06/22 08:20:45;;;;;;;6.37;2.80;;;;;;;23.51;42.46;101576.94;5027405;28;20294;-70
2021/06/22 08:23:11;;;;;;;9.63;2.73;;;;;;;23.48;41.98;101576.16;5028848;28;20187;-70
2021/06/22 08:25:36;;;;;;;6.77;2.90;;;;;;;23.49;42.12;101580.47;5028070;28;20208;-70
2021/06/22 08:28:02;;;;;;;3.67;2.37;;;;;;;23.50;42.21;101577.84;5025004;28;20186;-71
2021/06/22 08:30:28;;;;;;;5.73;2.70;;;;;;;23.45;42.27;101582.31;5029156;28;20714;-70
2021/06/22 08:32:54;;;;;;;7.57;2.83;;;;;;;23.40;41.85;101581.53;5030234;28;20191;-71
2021/06/22 08:35:20;;;;;;;6.30;2.57;;;;;;;23.34;41.85;101581.66;5033626;28;20553;-71
2021/06/22 08:37:45;;;;;;;6.03;2.77;;;;;;;23.37;42.48;101580.72;5026176;28;20198;-70
2021/06/22 08:40:12;;;;;;;6.70;3.10;;;;;;;23.39;42.97;101571.13;5013099;28;20687;-71
2021/06/22 08:42:40;;;;;;;3.37;2.20;;;;;;;23.67;41.54;101565.22;4996756;28;20227;-70
2021/06/22 08:45:08;;;;;;;6.30;2.50;;;;;;;23.73;42.20;101565.09;5017618;28;20276;-69
2021/06/22 08:47:34;;;;;;;15.63;3.53;;;;;;;23.68;42.44;101560.88;5027394;28;20550;-69
2021/06/22 08:49:59;;;;;;;6.73;3.03;;;;;;;23.62;42.41;101574.94;5027204;28;20203;-69
2021/06/22 08:52:26;;;;;;;6.40;2.57;;;;;;;23.62;42.67;101572.31;5028977;28;20691;-70
2021/06/22 08:54:53;;;;;;;3.83;2.30;;;;;;;23.66;42.65;101575.75;5032687;28;20182;-70
2021/06/22 08:57:19;;;;;;;4.43;2.50;;;;;;;23.69;42.70;101568.69;5026271;28;20282;-70
2021/06/22 08:59:45;;;;;;;5.83;2.83;;;;;;;23.69;42.99;101570.44;5021015;28;20252;-70
2021/06/22 09:02:10;;;;;;;3.07;2.40;;;;;;;23.69;42.74;101567.81;5045404;28;20674;-70
2021/06/22 09:04:35;;;;;;;5.90;2.50;;;;;;;23.64;42.93;101575.78;5031896;28;20186;-70
2021/06/22 09:07:00;;;;;;;6.37;2.87;;;;;;;23.72;42.49;101578.22;5013472;28;20191;-69
2021/06/22 09:09:34;;;;;;;6.53;2.73;;;;;;;23.64;42.46;101575.78;5013238;28;20695;-70
2021/06/22 09:12:04;;;;;;;7.50;2.93;;;;;;;23.63;42.57;101575.81;5035232;28;20194;-69
2021/06/22 09:14:37;;;;;;;5.87;2.67;;;;;;;23.66;42.29;101566.13;5016027;28;20274;-68
2021/06/22 09:17:04;;;;;;;9.87;2.87;;;;;;;23.65;41.83;101574.88;5032981;28;20201;-69
2021/06/22 09:19:30;;;;;;;4.17;2.30;;;;;;;23.65;41.43;101574.00;5029959;28;20221;-69
2021/06/22 09:22:12;;;;;;;6.50;2.77;;;;;;;23.64;41.67;101585.38;5029964;28;20210;-72
2021/06/22 09:24:37;;;;;;;3.60;2.27;;;;;;;23.64;41.43;101573.16;5022645;28;20244;-71
2021/06/22 09:27:02;;;;;;;7.67;2.80;;;;;;;23.63;41.36;101570.56;5014419;28;20712;-70
2021/06/22 09:29:28;;;;;;;8.67;2.83;;;;;;;23.60;41.33;101575.84;5012963;28;20217;-71
2021/06/22 09:31:54;;;;;;;4.77;2.77;;;;;;;23.57;41.68;101570.72;5013941;28;20183;-73
2021/06/22 09:34:21;;;;;;;3.93;2.80;;;;;;;23.56;41.68;101564.63;5012124;28;20198;-70
2021/06/22 09:36:52;;;;;;;4.93;2.93;;;;;;;23.60;41.72;101568.88;5043611;28;20188;-71
2021/06/22 09:39:17;;;;;;;6.50;2.83;;;;;;;23.60;41.81;101568.88;5020521;28;20203;-71
2021/06/22 09:41:43;;;;;;;6.27;2.77;;;;;;;23.62;41.46;101558.41;4994233;28;20674;-72
2021/06/22 09:44:17;;;;;;;7.50;3.03;;;;;;;23.61;41.71;101570.59;5023575;28;20734;-71
2021/06/22 09:46:45;;;;;;;7.27;2.93;;;;;;;23.57;41.52;101571.56;5044377;28;20644;-69
2021/06/22 09:49:32;;;;;;;5.30;2.67;;;;;;;23.54;41.60;101561.19;5031743;28;20577;-68
2021/06/22 09:52:10;;;;;;;6.00;2.80;;;;;;;23.54;41.56;101566.41;5029840;28;20189;-68
2021/06/22 09:54:41;;;;;;;3.43;2.20;;;;;;;23.57;41.52;101573.34;5033090;28;20213;-68
2021/06/22 09:57:13;;;;;;;5.57;3.10;;;;;;;23.60;41.76;101573.25;5032400;28;20192;-67
2021/06/22 09:59:57;;;;;;;4.83;3.13;;;;;;;23.54;41.79;101569.03;5029780;28;20740;-66
2021/06/22 10:02:24;;;;;;;7.87;3.43;;;;;;;23.53;42.08;101572.50;5030183;28;20182;-66
2021/06/22 10:04:55;;;;;;;4.00;2.57;;;;;;;23.52;41.57;101581.25;5031657;28;20205;-66
2021/06/22 10:07:23;;;;;;;6.93;2.90;;;;;;;23.50;41.63;101587.41;5017298;28;20183;-66
2021/06/22 10:09:58;;;;;;;4.50;2.80;;;;;;;23.50;41.72;101590.03;5015795;28;20209;-66
2021/06/22 10:12:26;;;;;;;5.57;2.63;;;;;;;23.50;41.43;101592.66;5031778;28;20178;-66
2021/06/22 10:14:54;;;;;;;6.13;2.87;;;;;;;23.51;41.70;101581.28;5040972;28;20183;-66
2021/06/22 10:17:22;;;;;;;5.10;2.83;;;;;;;23.54;41.32;101587.34;5031436;28;20687;-66
2021/06/22 10:19:49;;;;;;;4.77;2.90;;;;;;;23.53;41.06;101596.06;5029434;28;20218;-66
2021/06/22 10:22:16;;;;;;;4.23;2.77;;;;;;;23.55;40.80;101594.28;5031236;28;20268;-66
2021/06/22 10:24:44;;;;;;;6.70;2.67;;;;;;;23.47;40.56;101601.44;5030219;28;20190;-65
2021/06/22 10:27:11;;;;;;;4.23;2.43;;;;;;;23.44;40.40;101604.09;5030912;28;20174;-68
2021/06/22 10:29:37;;;;;;;3.57;2.50;;;;;;;23.43;40.71;101606.78;5012779;28;20305;-67
2021/06/22 10:32:03;;;;;;;4.33;2.50;;;;;;;23.47;40.30;101611.88;5011203;28;20274;-70
2021/06/22 10:34:30;;;;;;;5.10;2.70;;;;;;;23.49;40.31;101606.63;5012882;28;20182;-71
2021/06/22 10:37:12;;;;;;;8.40;2.77;;;;;;;23.52;40.51;101609.19;5031926;28;20178;-71
2021/06/22 10:39:51;;;;;;;5.23;2.73;;;;;;;23.56;40.43;101613.44;5030636;28;20214;-69
2021/06/22 10:42:18;;;;;;;4.97;2.63;;;;;;;23.59;40.48;101605.53;5005823;28;20234;-72
2021/06/22 10:44:49;;;;;;;3.33;2.40;;;;;;;23.57;40.75;101600.34;5011512;28;20211;-67
2021/06/22 10:47:22;;;;;;;7.07;2.50;;;;;;;23.59;40.89;101602.91;5022628;28;20208;-69
2021/06/22 10:50:05;;;;;;;5.37;2.30;;;;;;;23.62;40.81;101595.84;5031183;28;20206;-69
2021/06/22 10:52:53;;;;;;;6.47;2.50;;;;;;;23.63;40.81;101589.75;5031333;28;20175;-68
2021/06/22 10:55:27;;;;;;;4.03;2.40;;;;;;;23.67;40.91;101603.63;5029122;28;20182;-68
2021/06/22 10:58:11;;;;;;;6.47;2.97;;;;;;;23.65;40.70;101610.63;5019782;28;20198;-69
2021/06/22 11:00:49;;;;;;;6.13;2.57;;;;;;;23.63;40.96;101623.75;5011595;28;20680;-69
2021/06/22 11:03:32;;;;;;;6.23;2.70;;;;;;;23.65;40.61;101614.13;5010100;28;20191;-69
2021/06/22 11:06:20;;;;;;;4.80;2.73;;;;;;;23.64;40.87;101615.00;5024178;28;20204;-69
2021/06/22 11:08:46;;;;;;;4.50;2.60;;;;;;;23.62;40.87;101622.00;5031350;28;20177;-68
2021/06/22 11:11:11;;;;;;;3.50;2.50;;;;;;;23.65;40.73;101610.63;5033603;28;20198;-70
2021/06/22 11:13:55;;;;;;;5.33;2.90;;;;;;;23.68;40.96;101618.41;5034163;28;20179;-68
2021/06/22 11:16:21;;;;;;;6.40;2.90;;;;;;;23.69;40.92;101614.91;5012945;28;20236;-69
2021/06/22 11:18:55;;;;;;;6.27;2.77;;;;;;;23.69;40.65;101607.94;5011019;28;20831;-69
2021/06/22 11:21:21;;;;;;;6.37;2.50;;;;;;;23.71;40.95;101616.59;5010170;28;20596;-68